Bacliff, Texas
Current Conditions -  °F | °C
As of 3:50 AM on Monday 26 Jan 2015 (Local Time) from KEFD Reporting Station
Scattered Clouds Scattered Clouds  
Wind Chill: 66°   Ceiling: Unl
Heat Index: 66°   Visibility: 10mi
Dew Point: 27°   Wind: 3mph
Humidity: 23%   Direction: 320°NW
Pressure: 30.15"   Gusts: NA
Location:  29.51°N, 94.99°W
Report Text: KEFD 260950Z 32003KT 10SM SCT250 19/M03 A3015
Loading
Personal Weather Stations






























Interactive Weather Map New forecast layout! Learn more

10-Day Weather Forecast

Advertisements
Track Severe Weather on mobile